createdAt,value
2022-11-05T00:02:28.324Z,52.53
2022-11-05T00:05:48.820Z,52.38
2022-11-05T00:09:09.353Z,52.32
2022-11-05T00:12:31.421Z,52.51
2022-11-05T00:15:51.464Z,52.00
2022-11-05T00:19:07.485Z,52.08
2022-11-05T00:22:27.811Z,52.44
2022-11-05T00:25:31.179Z,52.41
2022-11-05T00:28:35.070Z,52.17
2022-11-05T00:31:37.857Z,52.01
2022-11-05T00:34:42.001Z,52.42
2022-11-05T00:37:49.780Z,51.95
2022-11-05T00:40:53.132Z,51.95
2022-11-05T00:44:13.571Z,51.90
2022-11-05T00:47:33.988Z,52.19
2022-11-05T00:50:38.151Z,52.37
2022-11-05T00:53:40.879Z,52.14
2022-11-05T00:56:43.633Z,52.29
2022-11-05T00:59:46.345Z,52.39
2022-11-05T01:02:49.230Z,52.24
2022-11-05T01:05:54.385Z,52.31
2022-11-05T01:08:57.173Z,52.20
2022-11-05T01:11:59.942Z,52.61
2022-11-05T01:15:02.956Z,52.32
2022-11-05T01:18:06.146Z,52.47
2022-11-05T01:21:14.191Z,52.26
2022-11-05T01:24:16.957Z,52.23
2022-11-05T01:27:19.697Z,52.14
2022-11-05T01:30:22.564Z,52.33
2022-11-05T01:33:25.449Z,52.36
2022-11-05T01:36:29.581Z,52.45
2022-11-05T01:39:32.281Z,52.25
2022-11-05T01:42:35.623Z,52.49
2022-11-05T01:45:38.435Z,52.22
2022-11-05T01:48:41.514Z,52.32
2022-11-05T01:51:46.779Z,52.30
2022-11-05T01:54:49.629Z,52.33
2022-11-05T01:57:53.702Z,52.28
2022-11-05T02:00:57.935Z,52.36
2022-11-05T02:04:01.794Z,52.34
2022-11-05T02:07:07.505Z,52.54
2022-11-05T02:10:11.299Z,52.57
2022-11-05T02:13:14.043Z,52.49
2022-11-05T02:16:20.765Z,52.49
2022-11-05T02:19:38.304Z,52.51
2022-11-05T02:23:14.347Z,52.50
2022-11-05T02:26:50.357Z,52.36
2022-11-05T02:30:03.180Z,52.36
2022-11-05T02:33:19.538Z,52.58
2022-11-05T02:36:28.976Z,52.63
2022-11-05T02:39:38.466Z,52.51
2022-11-05T02:42:45.725Z,52.42
2022-11-05T02:45:52.086Z,52.45
2022-11-05T02:48:59.882Z,52.77
2022-11-05T02:52:05.188Z,52.74
2022-11-05T02:55:13.906Z,52.54
2022-11-05T02:58:16.725Z,52.53
2022-11-05T03:01:19.635Z,52.81
2022-11-05T03:04:24.858Z,52.58
2022-11-05T03:07:39.499Z,52.69
2022-11-05T03:10:46.164Z,52.90
2022-11-05T03:13:54.564Z,52.70
2022-11-05T03:17:01.569Z,52.91
2022-11-05T03:20:10.455Z,52.72
2022-11-05T03:23:15.958Z,52.80
2022-11-05T03:26:21.350Z,52.92
2022-11-05T03:29:26.382Z,52.68
2022-11-05T03:32:31.881Z,52.92
2022-11-05T03:35:38.830Z,52.87
2022-11-05T03:38:43.928Z,53.06
2022-11-05T03:41:49.756Z,52.84
2022-11-05T03:44:55.580Z,52.94
2022-11-05T03:48:01.018Z,52.90
2022-11-05T03:51:09.060Z,52.81
2022-11-05T03:54:12.104Z,53.00
2022-11-05T03:57:17.879Z,52.75
2022-11-05T04:00:22.318Z,52.96
2022-11-05T04:03:25.063Z,52.81
2022-11-05T04:06:46.728Z,52.92
2022-11-05T04:10:07.177Z,52.78
2022-11-05T04:13:25.785Z,52.94
2022-11-05T04:16:46.370Z,52.85
2022-11-05T04:20:06.689Z,52.64
2022-11-05T04:23:28.201Z,52.92
2022-11-05T04:26:30.993Z,52.77
2022-11-05T04:30:02.565Z,52.70
2022-11-05T04:33:06.271Z,52.71
2022-11-05T04:36:09.236Z,52.94
2022-11-05T04:39:13.777Z,52.77
2022-11-05T04:42:16.552Z,52.82
2022-11-05T04:45:19.354Z,52.82
2022-11-05T04:48:22.112Z,52.85
2022-11-05T04:51:24.926Z,52.81
2022-11-05T04:54:29.074Z,52.92
2022-11-05T04:57:31.806Z,52.64
2022-11-05T05:00:34.697Z,52.85
2022-11-05T05:03:37.470Z,52.74
2022-11-05T05:06:40.294Z,52.84
2022-11-05T05:09:44.472Z,52.61
2022-11-05T05:12:48.546Z,52.75
2022-11-05T05:15:51.314Z,52.72
2022-11-05T05:18:54.326Z,52.86
2022-11-05T05:21:56.088Z,52.72
2022-11-05T05:25:00.399Z,52.74
2022-11-05T05:28:03.184Z,52.88
2022-11-05T05:31:05.970Z,52.57
2022-11-05T05:34:09.302Z,52.81
2022-11-05T05:37:12.037Z,52.90
2022-11-05T05:40:16.310Z,52.73
2022-11-05T05:43:19.437Z,52.81
2022-11-05T05:46:22.137Z,52.83
2022-11-05T05:49:24.900Z,52.69
2022-11-05T05:52:27.615Z,52.75
2022-11-05T05:55:31.728Z,52.66
2022-11-05T05:58:35.802Z,52.81
2022-11-05T06:01:38.687Z,52.64
2022-11-05T06:04:41.541Z,52.74
2022-11-05T06:07:44.386Z,52.92
2022-11-05T06:10:52.721Z,52.77
2022-11-05T06:13:55.547Z,52.62
2022-11-05T06:16:58.276Z,52.90
2022-11-05T06:20:00.981Z,52.70
2022-11-05T06:23:03.763Z,52.75
2022-11-05T06:26:09.353Z,52.73
2022-11-05T06:29:12.107Z,52.88
2022-11-05T06:32:14.897Z,52.73
2022-11-05T06:35:17.740Z,52.95
2022-11-05T06:38:20.488Z,52.88
2022-11-05T06:41:24.633Z,52.93
2022-11-05T06:44:27.398Z,52.76
2022-11-05T06:47:30.164Z,52.79
2022-11-05T06:50:32.994Z,52.95
2022-11-05T06:53:36.099Z,52.89
2022-11-05T06:56:40.205Z,53.15
2022-11-05T06:59:42.927Z,52.80
2022-11-05T07:02:45.979Z,52.94
2022-11-05T07:05:50.195Z,52.84
2022-11-05T07:08:52.950Z,52.91
2022-11-05T07:11:57.168Z,52.81
2022-11-05T07:15:00.064Z,52.92
2022-11-05T07:18:02.869Z,52.71
2022-11-05T07:21:05.713Z,53.02
2022-11-05T07:24:09.058Z,52.75
2022-11-05T07:27:13.166Z,52.81
2022-11-05T07:30:15.995Z,52.74
2022-11-05T07:33:18.738Z,52.62
2022-11-05T07:36:21.500Z,52.82
2022-11-05T07:39:24.291Z,52.69
2022-11-05T07:42:28.466Z,52.70
2022-11-05T07:45:34.080Z,52.78
2022-11-05T07:48:37.412Z,52.68
2022-11-05T07:51:40.539Z,52.67
2022-11-05T07:54:43.256Z,52.38
2022-11-05T07:57:48.231Z,52.15
2022-11-05T08:00:51.074Z,51.89
2022-11-05T08:03:53.922Z,52.47
2022-11-05T08:06:56.638Z,52.60
2022-11-05T08:09:59.450Z,52.24
2022-11-05T08:13:03.570Z,53.20
2022-11-05T08:16:07.774Z,53.56
2022-11-05T08:19:10.620Z,54.05
2022-11-05T08:22:13.329Z,53.55
2022-11-05T08:25:16.500Z,53.83
2022-11-05T08:28:21.909Z,53.67
2022-11-05T08:31:24.692Z,53.49
2022-11-05T08:34:27.440Z,53.50
2022-11-05T08:37:30.159Z,53.54
2022-11-05T08:40:34.064Z,53.48
2022-11-05T08:43:38.212Z,53.23
2022-11-05T08:46:41.797Z,53.15
2022-11-05T08:49:44.651Z,53.04
2022-11-05T08:52:47.380Z,52.98
2022-11-05T08:55:51.576Z,52.81
2022-11-05T08:58:55.750Z,52.90
2022-11-05T09:01:58.835Z,53.07
2022-11-05T09:05:01.673Z,53.15
2022-11-05T09:08:04.692Z,53.10
2022-11-05T09:11:07.470Z,53.21
2022-11-05T09:14:11.646Z,53.20
2022-11-05T09:17:17.557Z,53.35
2022-11-05T09:20:20.392Z,53.28
2022-11-05T09:23:23.143Z,53.19
2022-11-05T09:26:25.894Z,53.08
2022-11-05T09:29:29.969Z,52.94
2022-11-05T09:32:32.724Z,53.05
2022-11-05T09:35:35.560Z,53.02
2022-11-05T09:38:38.347Z,52.74
2022-11-05T09:41:43.542Z,52.74
2022-11-05T09:44:49.750Z,52.66
2022-11-05T09:47:54.832Z,52.78
2022-11-05T09:50:58.302Z,53.19
2022-11-05T09:54:01.456Z,53.15
2022-11-05T09:57:06.743Z,53.36
2022-11-05T10:00:22.631Z,53.17
2022-11-05T10:03:29.232Z,52.87
2022-11-05T10:06:32.131Z,53.42
2022-11-05T10:09:37.399Z,53.25
2022-11-05T10:16:05.010Z,53.49
2022-11-05T10:19:09.926Z,53.51
2022-11-05T10:22:16.326Z,53.33
2022-11-05T10:25:20.928Z,53.44
2022-11-05T10:28:25.401Z,52.94
2022-11-05T10:31:35.459Z,53.15
2022-11-05T10:34:39.505Z,53.58
2022-11-05T10:37:42.419Z,53.13
2022-11-05T10:40:50.345Z,53.53
2022-11-05T10:43:56.309Z,53.26
2022-11-05T10:47:07.411Z,53.44
2022-11-05T10:50:14.914Z,52.99
2022-11-05T10:53:19.508Z,52.93
2022-11-05T10:56:33.383Z,52.20
2022-11-05T10:59:36.133Z,52.10
2022-11-05T11:02:40.657Z,53.10
2022-11-05T11:05:46.401Z,53.32
2022-11-05T11:08:49.907Z,53.29
2022-11-05T11:12:01.803Z,53.38
2022-11-05T11:15:05.764Z,52.87
2022-11-05T11:18:32.463Z,52.49
2022-11-05T11:21:39.184Z,51.51
2022-11-05T11:24:42.837Z,51.44
2022-11-05T11:27:48.391Z,51.81
2022-11-05T11:30:53.019Z,51.46
2022-11-05T11:33:59.868Z,51.30
2022-11-05T11:37:06.303Z,51.44
2022-11-05T11:40:16.333Z,51.49
2022-11-05T11:43:25.637Z,51.41
2022-11-05T11:46:32.542Z,51.55
2022-11-05T11:49:42.191Z,51.49
2022-11-05T11:52:44.941Z,50.75
2022-11-05T11:56:04.836Z,50.78
2022-11-05T11:59:13.098Z,51.15
2022-11-05T12:02:25.515Z,51.20
2022-11-05T12:05:34.058Z,51.00
2022-11-05T12:08:56.411Z,50.68
2022-11-05T12:12:06.864Z,50.80
2022-11-05T12:15:21.536Z,50.98
2022-11-05T12:18:31.326Z,50.94
2022-11-05T12:21:52.528Z,50.73
2022-11-05T12:25:11.658Z,50.39
2022-11-05T12:28:26.543Z,50.28
2022-11-05T12:31:34.102Z,49.90
2022-11-05T12:34:43.870Z,50.07
2022-11-05T12:37:53.733Z,50.19
2022-11-05T12:41:03.151Z,49.68
2022-11-05T12:44:13.756Z,49.50
2022-11-05T12:47:25.636Z,49.52
2022-11-05T12:50:32.705Z,49.84
2022-11-05T12:53:44.315Z,49.73
2022-11-05T12:56:48.754Z,49.55
2022-11-05T12:59:53.533Z,49.32
2022-11-05T13:02:59.314Z,49.72
2022-11-05T13:06:06.221Z,49.66
2022-11-05T13:09:14.151Z,49.73
2022-11-05T13:12:18.414Z,49.55
2022-11-05T13:15:25.206Z,50.29
2022-11-05T13:18:31.318Z,50.59
2022-11-05T13:21:35.955Z,50.16
2022-11-05T13:24:41.253Z,50.60
2022-11-05T13:27:58.896Z,51.32
2022-11-05T13:31:05.441Z,50.42
2022-11-05T13:34:11.167Z,51.03
2022-11-05T13:37:31.540Z,51.50
2022-11-05T13:40:41.788Z,51.86
2022-11-05T13:43:51.229Z,51.55
2022-11-05T13:47:02.020Z,51.67
2022-11-05T13:50:17.467Z,52.22
2022-11-05T13:53:41.130Z,52.31
2022-11-05T13:57:01.315Z,52.02
2022-11-05T14:00:11.546Z,52.15
2022-11-05T14:03:18.011Z,52.27
2022-11-05T14:06:24.728Z,52.47
2022-11-05T14:09:27.965Z,52.31
2022-11-05T14:12:34.126Z,52.35
2022-11-05T14:15:37.546Z,52.53
2022-11-05T14:18:42.502Z,52.41
2022-11-05T14:21:49.063Z,52.60
2022-11-05T14:24:51.799Z,52.50
2022-11-05T14:27:59.114Z,53.23
2022-11-05T14:31:02.087Z,53.08
2022-11-05T14:34:17.739Z,53.12
2022-11-05T14:37:31.327Z,53.23
2022-11-05T14:40:36.832Z,53.56
2022-11-05T14:43:45.313Z,54.08
2022-11-05T14:46:49.150Z,53.57
2022-11-05T14:49:53.942Z,53.78
2022-11-05T14:52:58.474Z,53.81
2022-11-05T14:56:03.412Z,53.10
2022-11-05T14:59:25.929Z,53.61
2022-11-05T15:02:33.715Z,53.31
2022-11-05T15:05:38.623Z,53.34
2022-11-05T15:08:53.431Z,52.97
2022-11-05T15:12:05.402Z,53.01
2022-11-05T15:15:21.712Z,52.59
2022-11-05T15:18:29.430Z,52.59
2022-11-05T15:21:34.311Z,52.67
2022-11-05T15:24:37.561Z,52.99
2022-11-05T15:27:47.946Z,52.69
2022-11-05T15:30:56.733Z,52.20
2022-11-05T15:34:26.610Z,52.63
2022-11-05T15:37:30.787Z,51.89
2022-11-05T15:40:34.249Z,51.62
2022-11-05T15:43:47.740Z,52.16
2022-11-05T15:47:05.259Z,52.13
2022-11-05T15:50:14.625Z,51.87
2022-11-05T15:53:47.525Z,51.34
2022-11-05T15:56:52.589Z,51.79
2022-11-05T15:59:58.168Z,51.32
2022-11-05T16:03:03.261Z,51.68
2022-11-05T16:06:10.079Z,51.29
2022-11-05T16:09:22.650Z,51.23
2022-11-05T16:12:33.191Z,51.21
2022-11-05T16:15:36.139Z,51.37
2022-11-05T16:18:38.957Z,51.44
2022-11-05T16:21:54.015Z,51.36
2022-11-05T16:24:58.714Z,51.11
2022-11-05T16:28:01.878Z,51.40
2022-11-05T16:31:05.918Z,51.18
2022-11-05T16:34:08.794Z,51.19
2022-11-05T16:37:13.629Z,51.12
2022-11-05T16:40:19.148Z,50.98
2022-11-05T16:43:22.777Z,51.43
2022-11-05T16:46:26.640Z,50.68
2022-11-05T16:49:29.420Z,50.77
2022-11-05T16:52:32.211Z,50.33
2022-11-05T16:55:38.002Z,51.11
2022-11-05T16:58:40.981Z,50.67
2022-11-05T17:01:44.378Z,50.93
2022-11-05T17:04:48.183Z,50.79
2022-11-05T17:07:51.541Z,50.46
2022-11-05T17:10:55.820Z,50.68
2022-11-05T17:13:58.512Z,50.11
2022-11-05T17:17:02.142Z,49.94
2022-11-05T17:20:05.173Z,50.59
2022-11-05T17:23:08.978Z,50.34
2022-11-05T17:26:13.863Z,50.35
2022-11-05T17:29:16.833Z,50.11
2022-11-05T17:32:19.650Z,50.49
2022-11-05T17:35:22.751Z,50.29
2022-11-05T17:38:26.497Z,49.98
2022-11-05T17:41:31.569Z,50.49
2022-11-05T17:44:34.344Z,50.78
2022-11-05T17:47:37.129Z,50.56
2022-11-05T17:50:43.378Z,50.66
2022-11-05T17:53:46.513Z,50.03
2022-11-05T17:56:50.640Z,50.17
2022-11-05T17:59:53.648Z,50.28
2022-11-05T18:02:57.388Z,50.29
2022-11-05T18:06:02.072Z,50.46
2022-11-05T18:09:05.148Z,50.60
2022-11-05T18:12:09.493Z,50.26
2022-11-05T18:15:12.273Z,50.41
2022-11-05T18:18:15.018Z,50.30
2022-11-05T18:21:18.103Z,50.24
2022-11-05T18:24:20.926Z,50.09
2022-11-05T18:27:27.696Z,49.68
2022-11-05T18:30:31.591Z,49.83
2022-11-05T18:33:34.402Z,49.76
2022-11-05T18:36:37.567Z,49.33
2022-11-05T18:39:40.715Z,49.90
2022-11-05T18:42:44.844Z,49.81
2022-11-05T18:45:55.216Z,49.84
2022-11-05T18:48:58.678Z,50.03
2022-11-05T18:52:01.472Z,49.91
2022-11-05T18:55:04.368Z,50.09
2022-11-05T18:58:09.060Z,50.27
2022-11-05T19:01:14.092Z,50.44
2022-11-05T19:04:16.914Z,50.74
2022-11-05T19:07:23.835Z,50.42
2022-11-05T19:10:26.836Z,50.55
2022-11-05T19:13:30.948Z,50.98
2022-11-05T19:16:34.046Z,50.71
2022-11-05T19:19:36.804Z,50.54
2022-11-05T19:22:39.589Z,50.28
2022-11-05T19:25:42.369Z,49.89
2022-11-05T19:28:46.530Z,50.29
2022-11-05T19:31:49.340Z,50.19
2022-11-05T19:34:52.125Z,50.02
2022-11-05T19:37:54.937Z,49.63
2022-11-05T19:40:57.724Z,49.82
2022-11-05T19:44:02.152Z,49.43
2022-11-05T19:47:04.975Z,49.32
2022-11-05T19:50:08.409Z,49.74
2022-11-05T19:53:11.314Z,49.50
2022-11-05T19:56:15.360Z,49.80
2022-11-05T19:59:19.530Z,49.76
2022-11-05T20:02:22.533Z,49.67
2022-11-05T20:05:25.437Z,49.69
2022-11-05T20:08:28.556Z,49.37
2022-11-05T20:11:32.724Z,49.50
2022-11-05T20:14:36.995Z,49.57
2022-11-05T20:17:40.185Z,50.11
2022-11-05T20:20:42.988Z,49.81
2022-11-05T20:23:46.677Z,49.68
2022-11-05T20:26:49.476Z,49.78
2022-11-05T20:29:53.616Z,49.87
2022-11-05T20:32:56.781Z,49.79
2022-11-05T20:36:02.282Z,49.99
2022-11-05T20:39:05.827Z,49.93
2022-11-05T20:42:08.644Z,50.15
2022-11-05T20:45:13.014Z,50.09
2022-11-05T20:48:15.819Z,49.07
2022-11-05T20:51:19.758Z,49.41
2022-11-05T20:54:22.552Z,49.81
2022-11-05T20:57:25.315Z,49.63
2022-11-05T21:00:29.449Z,49.06
2022-11-05T21:03:32.246Z,48.94
2022-11-05T21:06:35.929Z,48.73
2022-11-05T21:09:38.713Z,48.83
2022-11-05T21:12:42.685Z,49.14
2022-11-05T21:15:49.885Z,49.36
2022-11-05T21:18:52.585Z,49.68
2022-11-05T21:21:55.442Z,49.77
2022-11-05T21:24:58.157Z,50.20
2022-11-05T21:28:01.154Z,49.93
2022-11-05T21:31:06.578Z,50.24
2022-11-05T21:34:09.333Z,49.02
2022-11-05T21:37:12.067Z,49.25
2022-11-05T21:40:14.887Z,49.61
2022-11-05T21:43:18.109Z,48.77
2022-11-05T21:46:22.437Z,50.19
2022-11-05T21:49:25.286Z,48.55
2022-11-05T21:52:45.521Z,49.46
2022-11-05T21:56:05.510Z,48.41
2022-11-05T21:59:28.458Z,48.45
2022-11-05T22:02:32.758Z,48.31
2022-11-05T22:05:35.687Z,48.97
2022-11-05T22:08:38.441Z,48.43
2022-11-05T22:11:41.200Z,48.81
2022-11-05T22:14:44.079Z,48.83
2022-11-05T22:17:50.296Z,48.64
2022-11-05T22:20:53.039Z,48.80
2022-11-05T22:23:55.849Z,48.57
2022-11-05T22:26:58.807Z,48.58
2022-11-05T22:30:02.634Z,48.58
2022-11-05T22:33:06.825Z,48.62
2022-11-05T22:36:09.937Z,48.50
2022-11-05T22:39:13.406Z,48.78
2022-11-05T22:42:16.193Z,48.62
2022-11-05T22:45:19.003Z,49.00
2022-11-05T22:48:23.115Z,48.77
2022-11-05T22:51:27.944Z,48.86
2022-11-05T22:54:35.084Z,49.04
2022-11-05T22:57:41.021Z,49.56
2022-11-05T23:00:43.818Z,49.34
2022-11-05T23:03:49.021Z,49.23
2022-11-05T23:07:09.553Z,49.33
2022-11-05T23:10:30.671Z,49.40
2022-11-05T23:13:33.390Z,49.71
2022-11-05T23:16:54.024Z,49.57
2022-11-05T23:20:17.953Z,49.41
2022-11-05T23:23:38.441Z,49.57
2022-11-05T23:26:54.090Z,49.66
2022-11-05T23:29:58.309Z,49.86
2022-11-05T23:33:00.101Z,49.82
2022-11-05T23:36:22.297Z,49.61
2022-11-05T23:39:25.049Z,49.58
2022-11-05T23:42:45.207Z,49.71
2022-11-05T23:46:05.722Z,49.76
2022-11-05T23:49:08.435Z,49.78
2022-11-05T23:52:12.613Z,49.79
2022-11-05T23:55:15.488Z,49.93
2022-11-05T23:58:18.608Z,49.90
